sensor_id;sensor_type;location;lat;lon;timestamp;pressure;altitude;pressure_sealevel;temperature
75273;BMP280;63869;52.344;16.928;2023-04-25T00:00:23;99698.19;;;9.29
75273;BMP280;63869;52.344;16.928;2023-04-25T00:02:50;99703.59;;;9.26
75273;BMP280;63869;52.344;16.928;2023-04-25T00:05:15;99691.09;;;9.23
75273;BMP280;63869;52.344;16.928;2023-04-25T00:07:41;99703.38;;;9.20
75273;BMP280;63869;52.344;16.928;2023-04-25T00:10:09;99700.34;;;9.18
75273;BMP280;63869;52.344;16.928;2023-04-25T00:12:36;99696.59;;;9.16
75273;BMP280;63869;52.344;16.928;2023-04-25T00:15:01;99693.19;;;9.15
75273;BMP280;63869;52.344;16.928;2023-04-25T00:17:27;99697.09;;;9.11
75273;BMP280;63869;52.344;16.928;2023-04-25T00:19:52;99698.25;;;9.10
75273;BMP280;63869;52.344;16.928;2023-04-25T00:22:18;99701.41;;;9.05
75273;BMP280;63869;52.344;16.928;2023-04-25T00:24:44;99694.31;;;8.98
75273;BMP280;63869;52.344;16.928;2023-04-25T00:27:09;99703.16;;;8.95
75273;BMP280;63869;52.344;16.928;2023-04-25T00:29:35;99707.84;;;8.91
75273;BMP280;63869;52.344;16.928;2023-04-25T00:32:02;99713.91;;;8.91
75273;BMP280;63869;52.344;16.928;2023-04-25T00:34:27;99704.47;;;8.87
75273;BMP280;63869;52.344;16.928;2023-04-25T00:36:53;99707.16;;;8.87
75273;BMP280;63869;52.344;16.928;2023-04-25T00:39:18;99710.63;;;8.84
75273;BMP280;63869;52.344;16.928;2023-04-25T00:41:44;99692.41;;;8.82
75273;BMP280;63869;52.344;16.928;2023-04-25T00:44:11;99703.47;;;8.81
75273;BMP280;63869;52.344;16.928;2023-04-25T00:46:37;99702.13;;;8.73
75273;BMP280;63869;52.344;16.928;2023-04-25T00:49:03;99701.81;;;8.71
75273;BMP280;63869;52.344;16.928;2023-04-25T00:51:29;99703.41;;;8.64
75273;BMP280;63869;52.344;16.928;2023-04-25T00:53:55;99695.41;;;8.64
75273;BMP280;63869;52.344;16.928;2023-04-25T00:56:21;99709.19;;;8.63
75273;BMP280;63869;52.344;16.928;2023-04-25T00:58:47;99711.56;;;8.57
75273;BMP280;63869;52.344;16.928;2023-04-25T01:01:13;99695.88;;;8.43
75273;BMP280;63869;52.344;16.928;2023-04-25T01:03:39;99721.63;;;8.50
75273;BMP280;63869;52.344;16.928;2023-04-25T01:06:09;99709.88;;;8.47
75273;BMP280;63869;52.344;16.928;2023-04-25T01:08:36;99707.28;;;8.44
75273;BMP280;63869;52.344;16.928;2023-04-25T01:11:02;99709.03;;;8.50
75273;BMP280;63869;52.344;16.928;2023-04-25T01:13:27;99710.22;;;8.49
75273;BMP280;63869;52.344;16.928;2023-04-25T01:15:53;99715.91;;;8.51
75273;BMP280;63869;52.344;16.928;2023-04-25T01:18:18;99718.56;;;8.51
75273;BMP280;63869;52.344;16.928;2023-04-25T01:20:45;99712.88;;;8.49
75273;BMP280;63869;52.344;16.928;2023-04-25T01:23:10;99709.13;;;8.47
75273;BMP280;63869;52.344;16.928;2023-04-25T01:25:36;99705.34;;;8.44
75273;BMP280;63869;52.344;16.928;2023-04-25T01:28:02;99716.00;;;8.44
75273;BMP280;63869;52.344;16.928;2023-04-25T01:30:27;99715.75;;;8.39
75273;BMP280;63869;52.344;16.928;2023-04-25T01:32:57;99709.41;;;8.33
75273;BMP280;63869;52.344;16.928;2023-04-25T01:35:23;99715.56;;;8.29
75273;BMP280;63869;52.344;16.928;2023-04-25T01:37:49;99715.28;;;8.24
75273;BMP280;63869;52.344;16.928;2023-04-25T01:40:14;99716.44;;;8.23
75273;BMP280;63869;52.344;16.928;2023-04-25T01:42:43;99726.75;;;8.21
75273;BMP280;63869;52.344;16.928;2023-04-25T01:45:09;99712.38;;;8.15
75273;BMP280;63869;52.344;16.928;2023-04-25T01:47:35;99710.22;;;8.10
75273;BMP280;63869;52.344;16.928;2023-04-25T01:50:03;99713.63;;;8.10
75273;BMP280;63869;52.344;16.928;2023-04-25T01:52:28;99721.28;;;8.08
75273;BMP280;63869;52.344;16.928;2023-04-25T01:54:54;99715.63;;;8.06
75273;BMP280;63869;52.344;16.928;2023-04-25T01:57:20;99716.34;;;8.07
75273;BMP280;63869;52.344;16.928;2023-04-25T01:59:46;99720.53;;;8.08
75273;BMP280;63869;52.344;16.928;2023-04-25T02:02:11;99716.34;;;8.07
75273;BMP280;63869;52.344;16.928;2023-04-25T02:04:37;99723.19;;;8.08
75273;BMP280;63869;52.344;16.928;2023-04-25T02:07:03;99726.19;;;8.10
75273;BMP280;63869;52.344;16.928;2023-04-25T02:09:28;99716.41;;;8.03
75273;BMP280;63869;52.344;16.928;2023-04-25T02:11:53;99722.84;;;8.06
75273;BMP280;63869;52.344;16.928;2023-04-25T02:14:19;99730.00;;;8.09
75273;BMP280;63869;52.344;16.928;2023-04-25T02:16:44;99726.50;;;8.12
75273;BMP280;63869;52.344;16.928;2023-04-25T02:19:11;99721.28;;;8.08
75273;BMP280;63869;52.344;16.928;2023-04-25T02:21:36;99730.63;;;8.16
75273;BMP280;63869;52.344;16.928;2023-04-25T02:24:02;99728.72;;;8.17
75273;BMP280;63869;52.344;16.928;2023-04-25T02:26:28;99731.38;;;8.17
75273;BMP280;63869;52.344;16.928;2023-04-25T02:28:53;99735.69;;;8.11
75273;BMP280;63869;52.344;16.928;2023-04-25T02:31:19;99720.22;;;8.02
75273;BMP280;63869;52.344;16.928;2023-04-25T02:33:44;99729.16;;;8.12
75273;BMP280;63869;52.344;16.928;2023-04-25T02:36:09;99731.13;;;8.11
75273;BMP280;63869;52.344;16.928;2023-04-25T02:38:35;99718.69;;;8.05
75273;BMP280;63869;52.344;16.928;2023-04-25T02:41:00;99727.34;;;8.09
75273;BMP280;63869;52.344;16.928;2023-04-25T02:43:26;99724.00;;;8.05
75273;BMP280;63869;52.344;16.928;2023-04-25T02:45:51;99722.88;;;8.02
75273;BMP280;63869;52.344;16.928;2023-04-25T02:48:16;99719.19;;;7.96
75273;BMP280;63869;52.344;16.928;2023-04-25T02:50:42;99725.97;;;8.01
75273;BMP280;63869;52.344;16.928;2023-04-25T02:53:07;99719.25;;;7.92
75273;BMP280;63869;52.344;16.928;2023-04-25T02:55:33;99722.28;;;7.94
75273;BMP280;63869;52.344;16.928;2023-04-25T02:57:58;99713.66;;;7.87
75273;BMP280;63869;52.344;16.928;2023-04-25T03:00:23;99711.38;;;7.89
75273;BMP280;63869;52.344;16.928;2023-04-25T03:02:49;99711.81;;;7.84
75273;BMP280;63869;52.344;16.928;2023-04-25T03:05:14;99704.63;;;7.81
75273;BMP280;63869;52.344;16.928;2023-04-25T03:07:40;99705.38;;;7.81
75273;BMP280;63869;52.344;16.928;2023-04-25T03:10:06;99708.13;;;7.78
75273;BMP280;63869;52.344;16.928;2023-04-25T03:12:32;99713.13;;;7.72
75273;BMP280;63869;52.344;16.928;2023-04-25T03:14:57;99709.38;;;7.70
75273;BMP280;63869;52.344;16.928;2023-04-25T03:17:23;99712.44;;;7.68
75273;BMP280;63869;52.344;16.928;2023-04-25T03:19:48;99711.28;;;7.69
75273;BMP280;63869;52.344;16.928;2023-04-25T03:22:13;99702.50;;;7.72
75273;BMP280;63869;52.344;16.928;2023-04-25T03:24:39;99703.72;;;7.68
75273;BMP280;63869;52.344;16.928;2023-04-25T03:27:05;99707.81;;;7.72
75273;BMP280;63869;52.344;16.928;2023-04-25T03:29:30;99705.16;;;7.72
75273;BMP280;63869;52.344;16.928;2023-04-25T03:31:55;99704.78;;;7.74
75273;BMP280;63869;52.344;16.928;2023-04-25T03:34:21;99715.00;;;7.75
75273;BMP280;63869;52.344;16.928;2023-04-25T03:36:47;99710.84;;;7.74
75273;BMP280;63869;52.344;16.928;2023-04-25T03:39:12;99706.69;;;7.73
75273;BMP280;63869;52.344;16.928;2023-04-25T03:41:37;99702.81;;;7.78
75273;BMP280;63869;52.344;16.928;2023-04-25T03:44:03;99708.03;;;7.81
75273;BMP280;63869;52.344;16.928;2023-04-25T03:46:28;99713.38;;;7.81
75273;BMP280;63869;52.344;16.928;2023-04-25T03:48:53;99710.66;;;7.85
75273;BMP280;63869;52.344;16.928;2023-04-25T03:51:19;99722.84;;;7.82
75273;BMP280;63869;52.344;16.928;2023-04-25T03:53:44;99716.84;;;7.78
75273;BMP280;63869;52.344;16.928;2023-04-25T03:56:09;99720.59;;;7.81
75273;BMP280;63869;52.344;16.928;2023-04-25T03:58:35;99722.09;;;7.82
75273;BMP280;63869;52.344;16.928;2023-04-25T04:01:00;99711.19;;;7.76
75273;BMP280;63869;52.344;16.928;2023-04-25T04:03:28;99716.09;;;7.78
75273;BMP280;63869;52.344;16.928;2023-04-25T04:05:53;99724.41;;;7.80
75273;BMP280;63869;52.344;16.928;2023-04-25T04:08:18;99715.69;;;7.79
75273;BMP280;63869;52.344;16.928;2023-04-25T04:10:44;99713.38;;;7.81
75273;BMP280;63869;52.344;16.928;2023-04-25T04:13:09;99726.22;;;7.86
75273;BMP280;63869;52.344;16.928;2023-04-25T04:15:35;99723.91;;;7.88
75273;BMP280;63869;52.344;16.928;2023-04-25T04:18:00;99725.00;;;7.91
75273;BMP280;63869;52.344;16.928;2023-04-25T04:20:29;99718.84;;;7.94
75273;BMP280;63869;52.344;16.928;2023-04-25T04:22:55;99732.78;;;8.02
75273;BMP280;63869;52.344;16.928;2023-04-25T04:25:20;99736.91;;;8.06
75273;BMP280;63869;52.344;16.928;2023-04-25T04:27:45;99725.09;;;8.07
75273;BMP280;63869;52.344;16.928;2023-04-25T04:30:11;99737.91;;;8.12
75273;BMP280;63869;52.344;16.928;2023-04-25T04:32:37;99744.34;;;8.15
75273;BMP280;63869;52.344;16.928;2023-04-25T04:35:02;99740.56;;;8.12
75273;BMP280;63869;52.344;16.928;2023-04-25T04:37:29;99740.09;;;8.17
75273;BMP280;63869;52.344;16.928;2023-04-25T04:39:55;99744.66;;;8.20
75273;BMP280;63869;52.344;16.928;2023-04-25T04:42:20;99746.47;;;8.23
75273;BMP280;63869;52.344;16.928;2023-04-25T04:44:46;99751.47;;;8.21
75273;BMP280;63869;52.344;16.928;2023-04-25T04:47:11;99740.38;;;8.23
75273;BMP280;63869;52.344;16.928;2023-04-25T04:49:39;99756.91;;;8.34
75273;BMP280;63869;52.344;16.928;2023-04-25T04:52:05;99743.97;;;8.36
75273;BMP280;63869;52.344;16.928;2023-04-25T04:54:30;99744.16;;;8.45
75273;BMP280;63869;52.344;16.928;2023-04-25T04:56:55;99750.16;;;8.49
75273;BMP280;63869;52.344;16.928;2023-04-25T04:59:21;99746.38;;;8.67
75273;BMP280;63869;52.344;16.928;2023-04-25T05:01:46;99748.16;;;8.73
75273;BMP280;63869;52.344;16.928;2023-04-25T05:04:12;99744.88;;;8.85
75273;BMP280;63869;52.344;16.928;2023-04-25T05:06:37;99757.31;;;8.92
75273;BMP280;63869;52.344;16.928;2023-04-25T05:09:02;99744.28;;;8.94
75273;BMP280;63869;52.344;16.928;2023-04-25T05:11:28;99759.31;;;9.04
75273;BMP280;63869;52.344;16.928;2023-04-25T05:13:54;99759.84;;;9.15
75273;BMP280;63869;52.344;16.928;2023-04-25T05:16:20;99759.19;;;9.11
75273;BMP280;63869;52.344;16.928;2023-04-25T05:18:46;99760.53;;;9.19
75273;BMP280;63869;52.344;16.928;2023-04-25T05:21:12;99752.19;;;9.17
75273;BMP280;63869;52.344;16.928;2023-04-25T05:23:37;99767.25;;;9.24
75273;BMP280;63869;52.344;16.928;2023-04-25T05:26:02;99755.44;;;9.25
75273;BMP280;63869;52.344;16.928;2023-04-25T05:28:28;99765.63;;;9.30
75273;BMP280;63869;52.344;16.928;2023-04-25T05:30:53;99773.94;;;9.32
75273;BMP280;63869;52.344;16.928;2023-04-25T05:33:18;99756.19;;;9.25
75273;BMP280;63869;52.344;16.928;2023-04-25T05:35:46;99778.69;;;9.24
75273;BMP280;63869;52.344;16.928;2023-04-25T05:38:12;99774.84;;;9.25
75273;BMP280;63869;52.344;16.928;2023-04-25T05:40:37;99766.38;;;9.30
75273;BMP280;63869;52.344;16.928;2023-04-25T05:43:03;99756.44;;;9.31
75273;BMP280;63869;52.344;16.928;2023-04-25T05:45:28;99772.06;;;9.49
75273;BMP280;63869;52.344;16.928;2023-04-25T05:47:53;99765.66;;;9.59
75273;BMP280;63869;52.344;16.928;2023-04-25T05:50:19;99771.00;;;9.59
75273;BMP280;63869;52.344;16.928;2023-04-25T05:52:44;99778.38;;;9.55
75273;BMP280;63869;52.344;16.928;2023-04-25T05:55:09;99782.13;;;9.57
75273;BMP280;63869;52.344;16.928;2023-04-25T05:57:35;99779.34;;;9.61
75273;BMP280;63869;52.344;16.928;2023-04-25T06:00:00;99771.28;;;9.64
75273;BMP280;63869;52.344;16.928;2023-04-25T06:02:26;99773.59;;;9.79
75273;BMP280;63869;52.344;16.928;2023-04-25T06:04:51;99771.06;;;9.88
75273;BMP280;63869;52.344;16.928;2023-04-25T06:07:17;99778.16;;;10.11
75273;BMP280;63869;52.344;16.928;2023-04-25T06:09:44;99776.97;;;10.12
75273;BMP280;63869;52.344;16.928;2023-04-25T06:12:09;99779.75;;;10.21
75273;BMP280;63869;52.344;16.928;2023-04-25T06:14:35;99774.91;;;10.32
75273;BMP280;63869;52.344;16.928;2023-04-25T06:17:00;99780.84;;;10.23
75273;BMP280;63869;52.344;16.928;2023-04-25T06:19:36;99774.75;;;10.23
75273;BMP280;63869;52.344;16.928;2023-04-25T06:22:01;99771.09;;;10.17
75273;BMP280;63869;52.344;16.928;2023-04-25T06:24:27;99792.09;;;10.31
75273;BMP280;63869;52.344;16.928;2023-04-25T06:26:52;99779.69;;;10.37
75273;BMP280;63869;52.344;16.928;2023-04-25T06:29:18;99776.00;;;10.47
75273;BMP280;63869;52.344;16.928;2023-04-25T06:31:43;99777.97;;;10.59
75273;BMP280;63869;52.344;16.928;2023-04-25T06:34:08;99766.31;;;10.66
75273;BMP280;63869;52.344;16.928;2023-04-25T06:36:34;99769.88;;;10.76
75273;BMP280;63869;52.344;16.928;2023-04-25T06:38:59;99767.59;;;10.87
75273;BMP280;63869;52.344;16.928;2023-04-25T06:41:24;99773.28;;;11.01
75273;BMP280;63869;52.344;16.928;2023-04-25T06:43:50;99768.03;;;11.11
75273;BMP280;63869;52.344;16.928;2023-04-25T06:46:15;99772.13;;;11.15
75273;BMP280;63869;52.344;16.928;2023-04-25T06:48:40;99759.03;;;11.17
75273;BMP280;63869;52.344;16.928;2023-04-25T06:51:05;99766.00;;;11.27
75273;BMP280;63869;52.344;16.928;2023-04-25T06:53:31;99773.69;;;11.25
75273;BMP280;63869;52.344;16.928;2023-04-25T06:55:56;99769.31;;;11.31
75273;BMP280;63869;52.344;16.928;2023-04-25T06:58:21;99780.41;;;11.55
75273;BMP280;63869;52.344;16.928;2023-04-25T07:00:48;99776.22;;;11.67
75273;BMP280;63869;52.344;16.928;2023-04-25T07:03:14;99769.28;;;11.78
75273;BMP280;63869;52.344;16.928;2023-04-25T07:05:40;99764.19;;;11.71
75273;BMP280;63869;52.344;16.928;2023-04-25T07:08:05;99773.13;;;11.90
75273;BMP280;63869;52.344;16.928;2023-04-25T07:10:31;99771.81;;;11.95
75273;BMP280;63869;52.344;16.928;2023-04-25T07:12:56;99786.03;;;12.04
75273;BMP280;63869;52.344;16.928;2023-04-25T07:15:21;99772.34;;;12.02
75273;BMP280;63869;52.344;16.928;2023-04-25T07:17:47;99781.13;;;12.03
75273;BMP280;63869;52.344;16.928;2023-04-25T07:20:12;99777.91;;;11.95
75273;BMP280;63869;52.344;16.928;2023-04-25T07:22:37;99773.44;;;11.92
75273;BMP280;63869;52.344;16.928;2023-04-25T07:25:03;99773.00;;;11.94
75273;BMP280;63869;52.344;16.928;2023-04-25T07:27:29;99782.47;;;12.07
75273;BMP280;63869;52.344;16.928;2023-04-25T07:29:55;99783.31;;;12.17
75273;BMP280;63869;52.344;16.928;2023-04-25T07:32:20;99779.28;;;12.22
75273;BMP280;63869;52.344;16.928;2023-04-25T07:34:46;99770.34;;;12.16
75273;BMP280;63869;52.344;16.928;2023-04-25T07:37:11;99780.03;;;12.22
75273;BMP280;63869;52.344;16.928;2023-04-25T07:39:36;99774.44;;;12.29
75273;BMP280;63869;52.344;16.928;2023-04-25T07:42:02;99776.69;;;12.31
75273;BMP280;63869;52.344;16.928;2023-04-25T07:44:28;99778.78;;;12.36
75273;BMP280;63869;52.344;16.928;2023-04-25T07:46:55;99773.53;;;12.54
75273;BMP280;63869;52.344;16.928;2023-04-25T07:49:20;99770.56;;;12.52
75273;BMP280;63869;52.344;16.928;2023-04-25T07:51:46;99768.47;;;12.56
75273;BMP280;63869;52.344;16.928;2023-04-25T07:54:15;99775.63;;;12.59
75273;BMP280;63869;52.344;16.928;2023-04-25T07:56:41;99779.16;;;12.78
75273;BMP280;63869;52.344;16.928;2023-04-25T07:59:06;99769.06;;;12.91
75273;BMP280;63869;52.344;16.928;2023-04-25T08:01:31;99781.03;;;12.99
75273;BMP280;63869;52.344;16.928;2023-04-25T08:03:57;99779.41;;;13.02
75273;BMP280;63869;52.344;16.928;2023-04-25T08:06:22;99773.78;;;13.09
75273;BMP280;63869;52.344;16.928;2023-04-25T08:08:47;99773.78;;;13.09
75273;BMP280;63869;52.344;16.928;2023-04-25T08:11:13;99793.16;;;13.13
75273;BMP280;63869;52.344;16.928;2023-04-25T08:13:38;99768.38;;;13.00
75273;BMP280;63869;52.344;16.928;2023-04-25T08:16:03;99782.72;;;13.15
75273;BMP280;63869;52.344;16.928;2023-04-25T08:18:29;99780.75;;;13.06
75273;BMP280;63869;52.344;16.928;2023-04-25T08:20:54;99787.38;;;13.24
75273;BMP280;63869;52.344;16.928;2023-04-25T08:23:19;99777.88;;;13.41
75273;BMP280;63869;52.344;16.928;2023-04-25T08:25:45;99792.31;;;13.62
75273;BMP280;63869;52.344;16.928;2023-04-25T08:28:10;99787.84;;;13.68
75273;BMP280;63869;52.344;16.928;2023-04-25T08:30:36;99793.81;;;13.63
75273;BMP280;63869;52.344;16.928;2023-04-25T08:33:01;99798.00;;;13.64
75273;BMP280;63869;52.344;16.928;2023-04-25T08:35:27;99782.19;;;13.47
75273;BMP280;63869;52.344;16.928;2023-04-25T08:37:52;99793.81;;;13.63
75273;BMP280;63869;52.344;16.928;2023-04-25T08:40:19;99793.09;;;13.71
75273;BMP280;63869;52.344;16.928;2023-04-25T08:42:45;99794.13;;;13.83
75273;BMP280;63869;52.344;16.928;2023-04-25T08:45:11;99793.06;;;14.08
75273;BMP280;63869;52.344;16.928;2023-04-25T08:47:38;99797.53;;;14.02
75273;BMP280;63869;52.344;16.928;2023-04-25T08:50:04;99795.31;;;14.00
75273;BMP280;63869;52.344;16.928;2023-04-25T08:52:39;99790.34;;;14.17
75273;BMP280;63869;52.344;16.928;2023-04-25T08:55:09;99788.41;;;14.26
75273;BMP280;63869;52.344;16.928;2023-04-25T08:57:34;99796.78;;;14.19
75273;BMP280;63869;52.344;16.928;2023-04-25T09:00:01;99793.53;;;14.06
75273;BMP280;63869;52.344;16.928;2023-04-25T09:02:27;99798.41;;;14.17
75273;BMP280;63869;52.344;16.928;2023-04-25T09:04:53;99817.84;;;14.12
75273;BMP280;63869;52.344;16.928;2023-04-25T09:07:19;99816.09;;;13.72
75273;BMP280;63869;52.344;16.928;2023-04-25T09:09:46;99821.88;;;13.52
75273;BMP280;63869;52.344;16.928;2023-04-25T09:12:12;99808.72;;;13.45
75273;BMP280;63869;52.344;16.928;2023-04-25T09:14:37;99809.63;;;13.51
75273;BMP280;63869;52.344;16.928;2023-04-25T09:17:04;99821.00;;;13.55
75273;BMP280;63869;52.344;16.928;2023-04-25T09:19:32;99830.06;;;13.49
75273;BMP280;63869;52.344;16.928;2023-04-25T09:21:59;99821.00;;;13.55
75273;BMP280;63869;52.344;16.928;2023-04-25T09:24:44;99828.53;;;13.39
75273;BMP280;63869;52.344;16.928;2023-04-25T09:27:13;99818.88;;;13.41
75273;BMP280;63869;52.344;16.928;2023-04-25T09:29:42;99825.47;;;13.58
75273;BMP280;63869;52.344;16.928;2023-04-25T09:34:49;99822.44;;;13.38
75273;BMP280;63869;52.344;16.928;2023-04-25T09:37:27;99829.78;;;13.56
75273;BMP280;63869;52.344;16.928;2023-04-25T09:40:00;99831.44;;;13.63
75273;BMP280;63869;52.344;16.928;2023-04-25T09:42:30;99835.63;;;13.82
75273;BMP280;63869;52.344;16.928;2023-04-25T09:44:57;99836.84;;;13.72
75273;BMP280;63869;52.344;16.928;2023-04-25T09:47:24;99826.38;;;13.65
75273;BMP280;63869;52.344;16.928;2023-04-25T09:49:51;99828.44;;;13.51
75273;BMP280;63869;52.344;16.928;2023-04-25T09:52:22;99843.25;;;13.16
75273;BMP280;63869;52.344;16.928;2023-04-25T09:54:48;99848.56;;;12.98
75273;BMP280;63869;52.344;16.928;2023-04-25T09:57:16;99839.47;;;13.04
75273;BMP280;63869;52.344;16.928;2023-04-25T09:59:44;99841.78;;;13.15
75273;BMP280;63869;52.344;16.928;2023-04-25T10:02:10;99837.63;;;13.32
75273;BMP280;63869;52.344;16.928;2023-04-25T10:04:36;99840.25;;;13.63
75273;BMP280;63869;52.344;16.928;2023-04-25T10:07:05;99842.63;;;13.61
75273;BMP280;63869;52.344;16.928;2023-04-25T10:09:32;99849.78;;;13.64
75273;BMP280;63869;52.344;16.928;2023-04-25T10:11:59;99854.16;;;13.71
75273;BMP280;63869;52.344;16.928;2023-04-25T10:14:25;99842.78;;;13.67
75273;BMP280;63869;52.344;16.928;2023-04-25T10:16:51;99854.41;;;13.64
75273;BMP280;63869;52.344;16.928;2023-04-25T10:19:19;99856.50;;;13.69
75273;BMP280;63869;52.344;16.928;2023-04-25T10:22:01;99848.41;;;13.41
75273;BMP280;63869;52.344;16.928;2023-04-25T10:24:28;99855.19;;;13.15
75273;BMP280;63869;52.344;16.928;2023-04-25T10:26:55;99851.09;;;13.01
75273;BMP280;63869;52.344;16.928;2023-04-25T10:29:22;99854.91;;;12.91
75273;BMP280;63869;52.344;16.928;2023-04-25T10:31:48;99844.94;;;12.92
75273;BMP280;63869;52.344;16.928;2023-04-25T10:34:15;99859.00;;;13.05
75273;BMP280;63869;52.344;16.928;2023-04-25T10:36:41;99861.47;;;13.21
75273;BMP280;63869;52.344;16.928;2023-04-25T10:39:07;99846.28;;;13.36
75273;BMP280;63869;52.344;16.928;2023-04-25T10:41:51;99850.22;;;13.53
75273;BMP280;63869;52.344;16.928;2023-04-25T10:44:17;99845.75;;;13.69
75273;BMP280;63869;52.344;16.928;2023-04-25T10:46:44;99843.53;;;13.85
75273;BMP280;63869;52.344;16.928;2023-04-25T10:49:09;99845.94;;;13.92
75273;BMP280;63869;52.344;16.928;2023-04-25T10:51:37;99858.03;;;13.97
75273;BMP280;63869;52.344;16.928;2023-04-25T10:54:04;99851.44;;;13.80
75273;BMP280;63869;52.344;16.928;2023-04-25T10:56:37;99853.25;;;13.83
75273;BMP280;63869;52.344;16.928;2023-04-25T11:01:42;99840.94;;;13.54
75273;BMP280;63869;52.344;16.928;2023-04-25T11:04:31;99846.03;;;13.43
75273;BMP280;63869;52.344;16.928;2023-04-25T11:09:28;99839.63;;;13.68
75273;BMP280;63869;52.344;16.928;2023-04-25T11:11:57;99848.34;;;13.90
75273;BMP280;63869;52.344;16.928;2023-04-25T11:14:23;99841.31;;;14.20
75273;BMP280;63869;52.344;16.928;2023-04-25T11:16:59;99835.91;;;14.39
75273;BMP280;63869;52.344;16.928;2023-04-25T11:19:26;99843.75;;;14.60
75273;BMP280;63869;52.344;16.928;2023-04-25T11:21:55;99837.94;;;14.95
75273;BMP280;63869;52.344;16.928;2023-04-25T11:24:28;99841.22;;;15.32
75273;BMP280;63869;52.344;16.928;2023-04-25T11:26:53;99842.47;;;15.45
75273;BMP280;63869;52.344;16.928;2023-04-25T11:29:22;99848.06;;;15.57
75273;BMP280;63869;52.344;16.928;2023-04-25T11:31:48;99853.75;;;15.35
75273;BMP280;63869;52.344;16.928;2023-04-25T11:34:17;99851.75;;;15.12
75273;BMP280;63869;52.344;16.928;2023-04-25T11:36:44;99855.09;;;15.06
75273;BMP280;63869;52.344;16.928;2023-04-25T11:39:10;99862.53;;;14.88
75273;BMP280;63869;52.344;16.928;2023-04-25T11:41:37;99863.53;;;14.39
75273;BMP280;63869;52.344;16.928;2023-04-25T11:44:03;99856.84;;;14.16
75273;BMP280;63869;52.344;16.928;2023-04-25T11:46:29;99865.19;;;13.82
75273;BMP280;63869;52.344;16.928;2023-04-25T11:48:55;99856.50;;;13.69
75273;BMP280;63869;52.344;16.928;2023-04-25T11:51:21;99860.53;;;13.55
75273;BMP280;63869;52.344;16.928;2023-04-25T11:53:46;99861.28;;;13.55
75273;BMP280;63869;52.344;16.928;2023-04-25T11:56:12;99862.91;;;13.53
75273;BMP280;63869;52.344;16.928;2023-04-25T11:59:01;99876.78;;;13.51
75273;BMP280;63869;52.344;16.928;2023-04-25T12:01:32;99871.84;;;13.41
75273;BMP280;63869;52.344;16.928;2023-04-25T12:03:57;99872.66;;;13.29
75273;BMP280;63869;52.344;16.928;2023-04-25T12:06:29;99871.13;;;13.09
75273;BMP280;63869;52.344;16.928;2023-04-25T12:09:07;99878.66;;;12.93
75273;BMP280;63869;52.344;16.928;2023-04-25T12:11:41;99874.41;;;12.82
75273;BMP280;63869;52.344;16.928;2023-04-25T12:14:07;99880.97;;;12.60
75273;BMP280;63869;52.344;16.928;2023-04-25T12:16:45;99875.56;;;12.51
75273;BMP280;63869;52.344;16.928;2023-04-25T12:19:15;99886.50;;;12.43
75273;BMP280;63869;52.344;16.928;2023-04-25T12:21:40;99876.53;;;12.44
75273;BMP280;63869;52.344;16.928;2023-04-25T12:26:52;99878.16;;;12.63
75273;BMP280;63869;52.344;16.928;2023-04-25T12:29:22;99890.22;;;12.90
75273;BMP280;63869;52.344;16.928;2023-04-25T12:31:49;99885.47;;;13.15
75273;BMP280;63869;52.344;16.928;2023-04-25T12:34:15;99891.66;;;13.43
75273;BMP280;63869;52.344;16.928;2023-04-25T12:36:40;99893.06;;;13.57
75273;BMP280;63869;52.344;16.928;2023-04-25T12:39:06;99910.06;;;13.63
75273;BMP280;63869;52.344;16.928;2023-04-25T12:41:32;99890.91;;;13.43
75273;BMP280;63869;52.344;16.928;2023-04-25T12:43:57;99890.06;;;13.55
75273;BMP280;63869;52.344;16.928;2023-04-25T12:46:23;99887.84;;;13.63
75273;BMP280;63869;52.344;16.928;2023-04-25T12:48:48;99891.97;;;13.45
75273;BMP280;63869;52.344;16.928;2023-04-25T12:51:14;99892.53;;;13.31
75273;BMP280;63869;52.344;16.928;2023-04-25T12:53:40;99896.97;;;13.25
75273;BMP280;63869;52.344;16.928;2023-04-25T12:56:06;99888.88;;;13.16
75273;BMP280;63869;52.344;16.928;2023-04-25T12:58:32;99901.91;;;12.96
75273;BMP280;63869;52.344;16.928;2023-04-25T13:00:58;99895.00;;;12.85
75273;BMP280;63869;52.344;16.928;2023-04-25T13:03:23;99911.03;;;12.76
75273;BMP280;63869;52.344;16.928;2023-04-25T13:05:49;99888.63;;;12.61
75273;BMP280;63869;52.344;16.928;2023-04-25T13:08:17;99897.13;;;12.69
75273;BMP280;63869;52.344;16.928;2023-04-25T13:10:42;99892.25;;;12.76
75273;BMP280;63869;52.344;16.928;2023-04-25T13:13:08;99899.56;;;13.07
75273;BMP280;63869;52.344;16.928;2023-04-25T13:15:33;99889.25;;;13.36
75273;BMP280;63869;52.344;16.928;2023-04-25T13:17:59;99889.97;;;13.77
75273;BMP280;63869;52.344;16.928;2023-04-25T13:20:24;99889.25;;;14.04
75273;BMP280;63869;52.344;16.928;2023-04-25T13:22:50;99896.56;;;14.21
75273;BMP280;63869;52.344;16.928;2023-04-25T13:25:15;99908.34;;;13.97
75273;BMP280;63869;52.344;16.928;2023-04-25T13:27:41;99925.34;;;13.35
75273;BMP280;63869;52.344;16.928;2023-04-25T13:30:09;99922.25;;;12.84
75273;BMP280;63869;52.344;16.928;2023-04-25T13:32:36;99926.22;;;12.01
75273;BMP280;63869;52.344;16.928;2023-04-25T13:35:03;99928.59;;;11.23
75273;BMP280;63869;52.344;16.928;2023-04-25T13:37:28;99922.56;;;10.78
75273;BMP280;63869;52.344;16.928;2023-04-25T13:39:55;99922.91;;;10.34
75273;BMP280;63869;52.344;16.928;2023-04-25T13:42:23;99929.13;;;10.15
75273;BMP280;63869;52.344;16.928;2023-04-25T13:44:48;99921.66;;;10.07
75273;BMP280;63869;52.344;16.928;2023-04-25T13:47:13;99919.19;;;9.99
75273;BMP280;63869;52.344;16.928;2023-04-25T13:49:39;99921.84;;;9.99
75273;BMP280;63869;52.344;16.928;2023-04-25T13:52:04;99919.72;;;10.11
75273;BMP280;63869;52.344;16.928;2023-04-25T13:54:30;99921.03;;;10.19
75273;BMP280;63869;52.344;16.928;2023-04-25T13:56:55;99922.03;;;10.25
75273;BMP280;63869;52.344;16.928;2023-04-25T13:59:23;99920.88;;;10.26
75273;BMP280;63869;52.344;16.928;2023-04-25T14:01:49;99924.16;;;10.30
75273;BMP280;63869;52.344;16.928;2023-04-25T14:04:14;99926.19;;;10.42
75273;BMP280;63869;52.344;16.928;2023-04-25T14:06:41;99918.31;;;10.51